sensor_id;sensor_type;location;lat;lon;timestamp;pressure;altitude;pressure_sealevel;temperature;humidity
6030;BME280;3043;42.682;23.376;2023-04-25T00:01:20;94147.38;;;12.06;100.00
6030;BME280;3043;42.682;23.376;2023-04-25T00:03:47;94146.28;;;12.11;100.00
6030;BME280;3043;42.682;23.376;2023-04-25T00:06:12;94138.03;;;12.02;100.00
6030;BME280;3043;42.682;23.376;2023-04-25T00:08:38;94141.66;;;12.18;100.00
6030;BME280;3043;42.682;23.376;2023-04-25T00:11:04;94144.72;;;12.07;100.00
6030;BME280;3043;42.682;23.376;2023-04-25T00:13:29;94129.31;;;12.04;100.00
6030;BME280;3043;42.682;23.376;2023-04-25T00:15:55;94124.25;;;12.01;100.00
6030;BME280;3043;42.682;23.376;2023-04-25T00:18:21;94119.47;;;11.92;100.00
6030;BME280;3043;42.682;23.376;2023-04-25T00:20:47;94109.38;;;11.86;100.00
6030;BME280;3043;42.682;23.376;2023-04-25T00:23:14;94100.94;;;11.81;100.00
6030;BME280;3043;42.682;23.376;2023-04-25T00:25:46;94099.50;;;11.74;100.00
6030;BME280;3043;42.682;23.376;2023-04-25T00:28:12;94092.78;;;11.70;100.00
6030;BME280;3043;42.682;23.376;2023-04-25T00:30:38;94095.38;;;11.70;100.00
6030;BME280;3043;42.682;23.376;2023-04-25T00:33:04;94093.13;;;11.61;100.00
6030;BME280;3043;42.682;23.376;2023-04-25T00:35:30;94088.22;;;11.55;100.00
6030;BME280;3043;42.682;23.376;2023-04-25T00:37:55;94085.44;;;11.60;100.00
6030;BME280;3043;42.682;23.376;2023-04-25T00:40:21;94087.84;;;11.64;100.00
6030;BME280;3043;42.682;23.376;2023-04-25T00:42:47;94088.34;;;11.52;100.00
6030;BME280;3043;42.682;23.376;2023-04-25T00:45:13;94094.44;;;11.51;100.00
6030;BME280;3043;42.682;23.376;2023-04-25T00:47:40;94081.69;;;11.47;100.00
6030;BME280;3043;42.682;23.376;2023-04-25T00:50:06;94081.88;;;11.42;100.00
6030;BME280;3043;42.682;23.376;2023-04-25T00:52:34;94071.66;;;11.39;100.00
6030;BME280;3043;42.682;23.376;2023-04-25T00:54:59;94072.59;;;11.37;100.00
6030;BME280;3043;42.682;23.376;2023-04-25T00:57:25;94072.97;;;11.28;100.00
6030;BME280;3043;42.682;23.376;2023-04-25T00:59:51;94076.22;;;11.33;100.00
6030;BME280;3043;42.682;23.376;2023-04-25T01:02:18;94078.50;;;11.40;100.00
6030;BME280;3043;42.682;23.376;2023-04-25T01:04:44;94076.03;;;11.37;100.00
6030;BME280;3043;42.682;23.376;2023-04-25T01:07:10;94078.50;;;11.40;100.00
6030;BME280;3043;42.682;23.376;2023-04-25T01:09:35;94071.06;;;11.33;100.00
6030;BME280;3043;42.682;23.376;2023-04-25T01:12:02;94070.19;;;11.32;100.00
6030;BME280;3043;42.682;23.376;2023-04-25T01:14:28;94061.91;;;11.24;100.00
6030;BME280;3043;42.682;23.376;2023-04-25T01:16:54;94048.69;;;11.50;100.00
6030;BME280;3043;42.682;23.376;2023-04-25T01:19:19;94041.91;;;11.48;100.00
6030;BME280;3043;42.682;23.376;2023-04-25T01:21:45;94037.31;;;11.34;100.00
6030;BME280;3043;42.682;23.376;2023-04-25T01:24:12;94042.09;;;11.43;100.00
6030;BME280;3043;42.682;23.376;2023-04-25T01:26:38;94041.78;;;11.31;100.00
6030;BME280;3043;42.682;23.376;2023-04-25T01:29:04;94035.09;;;11.45;100.00
6030;BME280;3043;42.682;23.376;2023-04-25T01:31:31;94031.88;;;11.40;100.00
6030;BME280;3043;42.682;23.376;2023-04-25T01:33:57;94039.13;;;11.32;100.00
6030;BME280;3043;42.682;23.376;2023-04-25T01:36:22;94028.00;;;11.30;100.00
6030;BME280;3043;42.682;23.376;2023-04-25T01:38:48;94031.81;;;11.42;100.00
6030;BME280;3043;42.682;23.376;2023-04-25T01:41:14;94028.81;;;11.11;100.00
6030;BME280;3043;42.682;23.376;2023-04-25T01:43:40;94047.38;;;11.00;100.00
6030;BME280;3043;42.682;23.376;2023-04-25T01:46:06;94052.56;;;11.00;100.00
6030;BME280;3043;42.682;23.376;2023-04-25T01:48:31;94042.06;;;11.03;100.00
6030;BME280;3043;42.682;23.376;2023-04-25T01:50:57;94045.06;;;11.14;100.00
6030;BME280;3043;42.682;23.376;2023-04-25T01:53:23;94041.44;;;10.98;100.00
6030;BME280;3043;42.682;23.376;2023-04-25T01:55:49;94054.00;;;11.07;100.00
6030;BME280;3043;42.682;23.376;2023-04-25T01:58:14;94059.19;;;11.07;100.00
6030;BME280;3043;42.682;23.376;2023-04-25T02:00:40;94052.13;;;10.91;100.00
6030;BME280;3043;42.682;23.376;2023-04-25T02:03:06;94049.59;;;10.89;100.00
6030;BME280;3043;42.682;23.376;2023-04-25T02:05:36;94042.34;;;10.97;100.00
6030;BME280;3043;42.682;23.376;2023-04-25T02:08:02;94041.69;;;10.92;100.00
6030;BME280;3043;42.682;23.376;2023-04-25T02:10:28;94046.81;;;10.94;100.00
6030;BME280;3043;42.682;23.376;2023-04-25T02:12:54;94037.19;;;11.17;100.00
6030;BME280;3043;42.682;23.376;2023-04-25T02:15:19;94033.78;;;11.15;100.00
6030;BME280;3043;42.682;23.376;2023-04-25T02:17:45;94037.44;;;11.31;100.00
6030;BME280;3043;42.682;23.376;2023-04-25T02:20:11;94024.94;;;11.21;100.00
6030;BME280;3043;42.682;23.376;2023-04-25T02:22:36;94022.69;;;11.33;100.00
6030;BME280;3043;42.682;23.376;2023-04-25T02:25:02;94015.53;;;11.18;100.00
6030;BME280;3043;42.682;23.376;2023-04-25T02:27:30;94019.44;;;11.28;100.00
6030;BME280;3043;42.682;23.376;2023-04-25T02:29:55;94009.97;;;11.27;100.00
6030;BME280;3043;42.682;23.376;2023-04-25T02:32:21;94003.97;;;11.27;100.00
6030;BME280;3043;42.682;23.376;2023-04-25T02:34:46;94010.34;;;11.38;100.00
6030;BME280;3043;42.682;23.376;2023-04-25T02:37:13;94000.66;;;11.43;100.00
6030;BME280;3043;42.682;23.376;2023-04-25T02:39:39;94009.47;;;11.39;100.00
6030;BME280;3043;42.682;23.376;2023-04-25T02:42:04;94006.34;;;11.31;100.00
6030;BME280;3043;42.682;23.376;2023-04-25T02:44:30;94010.88;;;11.46;100.00
6030;BME280;3043;42.682;23.376;2023-04-25T02:46:55;94002.19;;;11.47;100.00
6030;BME280;3043;42.682;23.376;2023-04-25T02:49:20;94000.78;;;11.40;100.00
6030;BME280;3043;42.682;23.376;2023-04-25T02:51:46;94003.88;;;11.48;100.00
6030;BME280;3043;42.682;23.376;2023-04-25T02:54:11;94002.59;;;11.38;100.00
6030;BME280;3043;42.682;23.376;2023-04-25T02:56:37;94004.28;;;11.39;100.00
6030;BME280;3043;42.682;23.376;2023-04-25T02:59:02;93998.97;;;11.42;100.00
6030;BME280;3043;42.682;23.376;2023-04-25T03:01:27;93987.09;;;11.37;100.00
6030;BME280;3043;42.682;23.376;2023-04-25T03:03:53;93995.41;;;11.45;100.00
6030;BME280;3043;42.682;23.376;2023-04-25T03:06:18;94000.91;;;11.37;100.00
6030;BME280;3043;42.682;23.376;2023-04-25T03:08:44;94006.63;;;11.25;100.00
6030;BME280;3043;42.682;23.376;2023-04-25T03:11:09;93997.66;;;11.32;100.00
6030;BME280;3043;42.682;23.376;2023-04-25T03:13:35;93999.31;;;11.35;100.00
6030;BME280;3043;42.682;23.376;2023-04-25T03:16:01;93998.59;;;11.31;100.00
6030;BME280;3043;42.682;23.376;2023-04-25T03:18:26;93992.22;;;11.38;100.00
6030;BME280;3043;42.682;23.376;2023-04-25T03:20:52;93987.03;;;11.38;100.00
6030;BME280;3043;42.682;23.376;2023-04-25T03:23:17;93996.25;;;11.45;100.00
6030;BME280;3043;42.682;23.376;2023-04-25T03:25:42;93997.00;;;11.47;100.00
6030;BME280;3043;42.682;23.376;2023-04-25T03:28:08;93998.06;;;11.43;100.00
6030;BME280;3043;42.682;23.376;2023-04-25T03:30:33;93995.31;;;11.46;100.00
6030;BME280;3043;42.682;23.376;2023-04-25T03:32:59;93994.75;;;11.40;100.00
6030;BME280;3043;42.682;23.376;2023-04-25T03:35:24;94001.03;;;11.34;100.00
6030;BME280;3043;42.682;23.376;2023-04-25T03:37:50;93996.66;;;11.16;100.00
6030;BME280;3043;42.682;23.376;2023-04-25T03:40:15;93993.00;;;11.20;100.00
6030;BME280;3043;42.682;23.376;2023-04-25T03:42:41;93995.66;;;11.19;100.00
6030;BME280;3043;42.682;23.376;2023-04-25T03:45:07;93997.31;;;11.01;100.00
6030;BME280;3043;42.682;23.376;2023-04-25T03:47:32;93997.03;;;11.07;100.00
6030;BME280;3043;42.682;23.376;2023-04-25T03:49:58;93984.84;;;11.09;100.00
6030;BME280;3043;42.682;23.376;2023-04-25T03:52:25;93993.00;;;11.20;100.00
6030;BME280;3043;42.682;23.376;2023-04-25T03:54:51;93990.88;;;11.50;100.00
6030;BME280;3043;42.682;23.376;2023-04-25T03:57:16;93987.69;;;12.00;100.00
6030;BME280;3043;42.682;23.376;2023-04-25T03:59:42;93988.63;;;12.53;100.00
6030;BME280;3043;42.682;23.376;2023-04-25T04:02:07;93994.81;;;13.04;100.00
6030;BME280;3043;42.682;23.376;2023-04-25T04:04:32;94005.66;;;13.46;100.00
6030;BME280;3043;42.682;23.376;2023-04-25T04:06:58;94005.53;;;13.97;100.00
6030;BME280;3043;42.682;23.376;2023-04-25T04:09:23;94010.19;;;14.23;100.00
6030;BME280;3043;42.682;23.376;2023-04-25T04:11:49;94025.59;;;14.74;100.00
6030;BME280;3043;42.682;23.376;2023-04-25T04:14:14;94038.09;;;15.28;100.00
6030;BME280;3043;42.682;23.376;2023-04-25T04:16:40;94035.44;;;15.59;100.00
6030;BME280;3043;42.682;23.376;2023-04-25T04:19:05;94041.97;;;15.80;100.00
6030;BME280;3043;42.682;23.376;2023-04-25T04:21:31;94041.41;;;15.61;100.00
6030;BME280;3043;42.682;23.376;2023-04-25T04:23:57;94037.91;;;15.31;100.00
6030;BME280;3043;42.682;23.376;2023-04-25T04:26:23;94046.59;;;15.02;100.00
6030;BME280;3043;42.682;23.376;2023-04-25T04:28:49;94039.88;;;14.67;100.00
6030;BME280;3043;42.682;23.376;2023-04-25T04:31:20;94046.59;;;14.71;100.00
6030;BME280;3043;42.682;23.376;2023-04-25T04:33:46;94042.84;;;14.61;100.00
6030;BME280;3043;42.682;23.376;2023-04-25T04:36:12;94036.00;;;14.74;100.00
6030;BME280;3043;42.682;23.376;2023-04-25T04:38:38;94024.94;;;14.55;100.00
6030;BME280;3043;42.682;23.376;2023-04-25T04:41:04;94030.41;;;14.51;100.00
6030;BME280;3043;42.682;23.376;2023-04-25T04:43:29;94018.00;;;14.23;100.00
6030;BME280;3043;42.682;23.376;2023-04-25T04:45:55;94028.66;;;13.86;100.00
6030;BME280;3043;42.682;23.376;2023-04-25T04:48:23;94020.63;;;13.58;100.00
6030;BME280;3043;42.682;23.376;2023-04-25T04:50:49;94017.44;;;13.36;100.00
6030;BME280;3043;42.682;23.376;2023-04-25T04:53:15;94023.72;;;13.15;100.00
6030;BME280;3043;42.682;23.376;2023-04-25T04:55:40;94017.09;;;12.91;100.00
6030;BME280;3043;42.682;23.376;2023-04-25T04:58:09;94025.00;;;12.71;100.00
6030;BME280;3043;42.682;23.376;2023-04-25T05:00:34;94031.25;;;12.67;100.00
6030;BME280;3043;42.682;23.376;2023-04-25T05:03:00;94036.75;;;12.61;100.00
6030;BME280;3043;42.682;23.376;2023-04-25T05:05:25;94026.53;;;12.75;100.00
6030;BME280;3043;42.682;23.376;2023-04-25T05:07:51;94028.97;;;12.78;100.00
6030;BME280;3043;42.682;23.376;2023-04-25T05:10:18;94027.44;;;12.74;100.00
6030;BME280;3043;42.682;23.376;2023-04-25T05:12:43;94031.41;;;12.64;100.00
6030;BME280;3043;42.682;23.376;2023-04-25T05:15:09;94038.72;;;12.55;100.00
6030;BME280;3043;42.682;23.376;2023-04-25T05:17:35;94043.13;;;12.53;100.00
6030;BME280;3043;42.682;23.376;2023-04-25T05:20:00;94034.97;;;12.61;100.00
6030;BME280;3043;42.682;23.376;2023-04-25T05:22:25;94038.31;;;12.82;100.00
6030;BME280;3043;42.682;23.376;2023-04-25T05:24:51;94039.41;;;12.59;100.00
6030;BME280;3043;42.682;23.376;2023-04-25T05:27:17;94040.06;;;12.45;100.00
6030;BME280;3043;42.682;23.376;2023-04-25T05:29:43;94025.38;;;12.44;100.00
6030;BME280;3043;42.682;23.376;2023-04-25T05:32:09;94030.88;;;12.38;100.00
6030;BME280;3043;42.682;23.376;2023-04-25T05:34:34;94024.94;;;12.53;100.00
6030;BME280;3043;42.682;23.376;2023-04-25T05:37:00;94031.69;;;12.57;100.00
6030;BME280;3043;42.682;23.376;2023-04-25T05:39:26;94037.06;;;12.72;100.00
6030;BME280;3043;42.682;23.376;2023-04-25T05:41:52;94037.97;;;12.71;100.00
6030;BME280;3043;42.682;23.376;2023-04-25T05:44:17;94040.13;;;12.80;100.00
6030;BME280;3043;42.682;23.376;2023-04-25T05:46:43;94034.59;;;12.69;100.00
6030;BME280;3043;42.682;23.376;2023-04-25T05:49:08;94042.44;;;12.86;100.00
6030;BME280;3043;42.682;23.376;2023-04-25T05:51:34;94047.78;;;12.83;100.00
6030;BME280;3043;42.682;23.376;2023-04-25T05:53:59;94055.34;;;13.06;100.00
6030;BME280;3043;42.682;23.376;2023-04-25T05:56:25;94046.94;;;13.35;100.00
6030;BME280;3043;42.682;23.376;2023-04-25T05:58:50;94049.38;;;13.55;100.00
6030;BME280;3043;42.682;23.376;2023-04-25T06:01:16;94046.47;;;13.44;100.00
6030;BME280;3043;42.682;23.376;2023-04-25T06:03:41;94046.09;;;13.68;100.00
6030;BME280;3043;42.682;23.376;2023-04-25T06:06:11;94050.22;;;14.05;100.00
6030;BME280;3043;42.682;23.376;2023-04-25T06:08:36;94039.25;;;13.83;100.00
6030;BME280;3043;42.682;23.376;2023-04-25T06:11:04;94052.91;;;14.03;100.00
6030;BME280;3043;42.682;23.376;2023-04-25T06:13:30;94058.19;;;14.50;100.00
6030;BME280;3043;42.682;23.376;2023-04-25T06:15:55;94059.19;;;14.79;100.00
6030;BME280;3043;42.682;23.376;2023-04-25T06:18:20;94066.56;;;15.02;100.00
6030;BME280;3043;42.682;23.376;2023-04-25T06:20:46;94066.84;;;14.97;100.00
6030;BME280;3043;42.682;23.376;2023-04-25T06:23:11;94066.19;;;15.39;100.00
6030;BME280;3043;42.682;23.376;2023-04-25T06:25:37;94076.78;;;15.65;100.00
6030;BME280;3043;42.682;23.376;2023-04-25T06:28:02;94078.88;;;15.74;100.00
6030;BME280;3043;42.682;23.376;2023-04-25T06:30:28;94077.47;;;15.39;100.00
6030;BME280;3043;42.682;23.376;2023-04-25T06:32:53;94073.69;;;15.45;100.00
6030;BME280;3043;42.682;23.376;2023-04-25T06:35:19;94087.53;;;15.45;100.00
6030;BME280;3043;42.682;23.376;2023-04-25T06:37:45;94075.72;;;15.83;100.00
6030;BME280;3043;42.682;23.376;2023-04-25T06:40:10;94076.69;;;16.39;100.00
6030;BME280;3043;42.682;23.376;2023-04-25T06:42:36;94072.78;;;16.60;100.00
6030;BME280;3043;42.682;23.376;2023-04-25T06:45:02;94079.34;;;16.93;100.00
6030;BME280;3043;42.682;23.376;2023-04-25T06:47:27;94090.81;;;17.31;100.00
6030;BME280;3043;42.682;23.376;2023-04-25T06:49:53;94096.81;;;17.60;100.00
6030;BME280;3043;42.682;23.376;2023-04-25T06:52:18;94100.88;;;18.03;100.00
6030;BME280;3043;42.682;23.376;2023-04-25T06:54:44;94109.31;;;17.94;100.00
6030;BME280;3043;42.682;23.376;2023-04-25T06:57:10;94104.91;;;17.82;100.00
6030;BME280;3043;42.682;23.376;2023-04-25T06:59:35;94102.69;;;17.63;100.00
6030;BME280;3043;42.682;23.376;2023-04-25T07:02:01;94100.78;;;17.53;100.00
6030;BME280;3043;42.682;23.376;2023-04-25T07:04:26;94097.25;;;17.26;100.00
6030;BME280;3043;42.682;23.376;2023-04-25T07:06:52;94092.88;;;17.26;100.00
6030;BME280;3043;42.682;23.376;2023-04-25T07:09:17;94094.31;;;17.18;100.00
6030;BME280;3043;42.682;23.376;2023-04-25T07:11:43;94098.56;;;17.33;100.00
6030;BME280;3043;42.682;23.376;2023-04-25T07:14:08;94099.28;;;17.49;100.00
6030;BME280;3043;42.682;23.376;2023-04-25T07:16:33;94096.44;;;17.91;100.00
6030;BME280;3043;42.682;23.376;2023-04-25T07:18:59;94095.03;;;17.73;100.00
6030;BME280;3043;42.682;23.376;2023-04-25T07:21:25;94094.81;;;17.37;100.00
6030;BME280;3043;42.682;23.376;2023-04-25T07:23:50;94090.31;;;17.53;100.00
6030;BME280;3043;42.682;23.376;2023-04-25T07:26:16;94096.59;;;17.63;100.00
6030;BME280;3043;42.682;23.376;2023-04-25T07:28:42;94092.44;;;17.20;100.00
6030;BME280;3043;42.682;23.376;2023-04-25T07:31:08;94095.22;;;17.04;100.00
6030;BME280;3043;42.682;23.376;2023-04-25T07:33:34;94098.66;;;17.58;100.00
6030;BME280;3043;42.682;23.376;2023-04-25T07:36:00;94092.41;;;17.60;100.00
6030;BME280;3043;42.682;23.376;2023-04-25T07:38:25;94097.34;;;17.65;100.00
6030;BME280;3043;42.682;23.376;2023-04-25T07:40:51;94081.84;;;18.51;100.00
6030;BME280;3043;42.682;23.376;2023-04-25T07:43:16;94089.44;;;20.10;100.00
6030;BME280;3043;42.682;23.376;2023-04-25T07:45:45;94086.03;;;21.84;100.00
6030;BME280;3043;42.682;23.376;2023-04-25T07:48:11;94085.72;;;23.20;96.36
6030;BME280;3043;42.682;23.376;2023-04-25T07:50:37;94079.50;;;23.80;88.02
6030;BME280;3043;42.682;23.376;2023-04-25T07:53:02;94076.34;;;23.37;91.85
6030;BME280;3043;42.682;23.376;2023-04-25T07:55:28;94080.44;;;23.60;89.46
6030;BME280;3043;42.682;23.376;2023-04-25T07:57:54;94072.75;;;23.38;86.05
6030;BME280;3043;42.682;23.376;2023-04-25T08:00:19;94078.06;;;22.77;87.87
6030;BME280;3043;42.682;23.376;2023-04-25T08:02:45;94077.81;;;22.39;90.98
6030;BME280;3043;42.682;23.376;2023-04-25T08:05:10;94078.34;;;22.13;92.53
6030;BME280;3043;42.682;23.376;2023-04-25T08:07:39;94068.44;;;22.05;91.64
6030;BME280;3043;42.682;23.376;2023-04-25T08:10:06;94079.69;;;21.33;98.15
6030;BME280;3043;42.682;23.376;2023-04-25T08:12:32;94082.88;;;21.16;99.29
6030;BME280;3043;42.682;23.376;2023-04-25T08:14:57;94074.00;;;20.95;100.00
6030;BME280;3043;42.682;23.376;2023-04-25T08:17:23;94076.63;;;22.02;100.00
6030;BME280;3043;42.682;23.376;2023-04-25T08:19:48;94081.09;;;23.33;90.15
6030;BME280;3043;42.682;23.376;2023-04-25T08:22:14;94064.03;;;23.66;84.89
6030;BME280;3043;42.682;23.376;2023-04-25T08:24:40;94063.59;;;23.61;83.88
6030;BME280;3043;42.682;23.376;2023-04-25T08:27:05;94054.19;;;24.15;81.63
6030;BME280;3043;42.682;23.376;2023-04-25T08:29:33;94062.25;;;23.76;85.06
6030;BME280;3043;42.682;23.376;2023-04-25T08:31:59;94056.34;;;23.34;84.39
6030;BME280;3043;42.682;23.376;2023-04-25T08:34:24;94051.59;;;23.28;85.28
6030;BME280;3043;42.682;23.376;2023-04-25T08:36:51;94048.06;;;23.96;87.92
6030;BME280;3043;42.682;23.376;2023-04-25T08:39:16;94058.94;;;25.14;73.82
6030;BME280;3043;42.682;23.376;2023-04-25T08:41:42;94059.56;;;24.98;73.45
6030;BME280;3043;42.682;23.376;2023-04-25T08:44:10;94060.31;;;24.06;79.30
6030;BME280;3043;42.682;23.376;2023-04-25T08:46:38;94057.22;;;23.92;80.79
6030;BME280;3043;42.682;23.376;2023-04-25T08:49:05;94065.34;;;22.92;85.63
6030;BME280;3043;42.682;23.376;2023-04-25T08:51:32;94076.03;;;21.56;100.00
6030;BME280;3043;42.682;23.376;2023-04-25T08:54:08;94075.34;;;21.12;100.00
6030;BME280;3043;42.682;23.376;2023-04-25T08:56:36;94078.56;;;19.80;100.00
6030;BME280;3043;42.682;23.376;2023-04-25T08:59:02;94076.28;;;19.04;100.00
6030;BME280;3043;42.682;23.376;2023-04-25T09:01:28;94068.50;;;18.17;100.00
6030;BME280;3043;42.682;23.376;2023-04-25T09:03:53;94052.38;;;18.10;100.00
6030;BME280;3043;42.682;23.376;2023-04-25T09:06:19;94053.19;;;19.09;100.00
6030;BME280;3043;42.682;23.376;2023-04-25T09:08:44;94047.13;;;20.47;100.00
6030;BME280;3043;42.682;23.376;2023-04-25T09:11:12;94045.59;;;21.32;100.00
6030;BME280;3043;42.682;23.376;2023-04-25T09:13:38;94042.00;;;21.75;100.00
6030;BME280;3043;42.682;23.376;2023-04-25T09:16:04;94034.34;;;22.54;100.00
6030;BME280;3043;42.682;23.376;2023-04-25T09:18:30;94037.00;;;22.85;94.41
6030;BME280;3043;42.682;23.376;2023-04-25T09:20:58;94032.69;;;22.53;94.00
6030;BME280;3043;42.682;23.376;2023-04-25T09:23:30;94031.00;;;23.22;95.70
6030;BME280;3043;42.682;23.376;2023-04-25T09:25:58;94029.97;;;23.82;92.28
6030;BME280;3043;42.682;23.376;2023-04-25T09:28:24;94034.97;;;23.85;88.86
6030;BME280;3043;42.682;23.376;2023-04-25T09:30:54;94024.84;;;23.03;91.43
6030;BME280;3043;42.682;23.376;2023-04-25T09:33:20;94021.44;;;22.82;88.54
6030;BME280;3043;42.682;23.376;2023-04-25T09:35:52;94033.84;;;21.78;96.73
6030;BME280;3043;42.682;23.376;2023-04-25T09:38:20;94031.66;;;21.83;96.87
6030;BME280;3043;42.682;23.376;2023-04-25T09:40:47;94023.38;;;21.25;100.00
6030;BME280;3043;42.682;23.376;2023-04-25T09:43:21;94024.47;;;20.89;100.00
6030;BME280;3043;42.682;23.376;2023-04-25T09:45:48;94019.50;;;20.42;100.00
6030;BME280;3043;42.682;23.376;2023-04-25T09:48:21;94020.81;;;20.47;100.00
6030;BME280;3043;42.682;23.376;2023-04-25T09:53:38;94016.72;;;21.41;100.00
6030;BME280;3043;42.682;23.376;2023-04-25T09:56:06;94024.72;;;21.51;100.00
6030;BME280;3043;42.682;23.376;2023-04-25T09:58:33;94021.59;;;21.25;100.00
6030;BME280;3043;42.682;23.376;2023-04-25T10:01:00;94027.53;;;21.27;100.00
6030;BME280;3043;42.682;23.376;2023-04-25T10:03:30;94031.31;;;21.02;100.00
6030;BME280;3043;42.682;23.376;2023-04-25T10:05:57;94037.41;;;21.14;100.00
6030;BME280;3043;42.682;23.376;2023-04-25T10:08:25;94039.19;;;21.13;99.30
6030;BME280;3043;42.682;23.376;2023-04-25T10:10:52;94037.66;;;20.67;100.00
6030;BME280;3043;42.682;23.376;2023-04-25T10:13:18;94028.34;;;20.41;100.00
6030;BME280;3043;42.682;23.376;2023-04-25T10:15:43;94013.56;;;19.49;100.00
6030;BME280;3043;42.682;23.376;2023-04-25T10:18:10;94012.16;;;18.85;100.00
6030;BME280;3043;42.682;23.376;2023-04-25T10:20:36;94013.59;;;18.28;100.00
6030;BME280;3043;42.682;23.376;2023-04-25T10:23:11;94025.56;;;17.82;100.00
6030;BME280;3043;42.682;23.376;2023-04-25T10:25:38;94041.81;;;17.47;100.00
6030;BME280;3043;42.682;23.376;2023-04-25T10:28:05;94034.63;;;16.98;100.00
6030;BME280;3043;42.682;23.376;2023-04-25T10:30:31;94016.44;;;16.56;100.00
6030;BME280;3043;42.682;23.376;2023-04-25T10:32:58;93995.97;;;16.62;100.00
6030;BME280;3043;42.682;23.376;2023-04-25T10:35:29;94001.44;;;17.64;100.00
6030;BME280;3043;42.682;23.376;2023-04-25T10:38:11;94006.59;;;18.53;100.00
6030;BME280;3043;42.682;23.376;2023-04-25T10:40:38;93995.03;;;19.39;100.00
6030;BME280;3043;42.682;23.376;2023-04-25T10:43:42;94009.00;;;19.51;100.00
6030;BME280;3043;42.682;23.376;2023-04-25T10:46:28;94030.28;;;19.59;100.00
6030;BME280;3043;42.682;23.376;2023-04-25T10:49:01;94034.63;;;19.23;100.00
6030;BME280;3043;42.682;23.376;2023-04-25T10:51:28;94028.97;;;19.29;100.00
6030;BME280;3043;42.682;23.376;2023-04-25T10:56:22;94022.25;;;20.51;100.00
6030;BME280;3043;42.682;23.376;2023-04-25T10:58:48;94021.63;;;20.48;100.00
6030;BME280;3043;42.682;23.376;2023-04-25T11:01:21;94018.66;;;19.26;100.00
6030;BME280;3043;42.682;23.376;2023-04-25T11:03:57;94016.47;;;19.09;100.00
6030;BME280;3043;42.682;23.376;2023-04-25T11:06:29;94015.38;;;18.52;100.00
6030;BME280;3043;42.682;23.376;2023-04-25T11:09:00;94007.22;;;18.19;100.00
6030;BME280;3043;42.682;23.376;2023-04-25T11:11:26;93993.19;;;17.95;100.00
6030;BME280;3043;42.682;23.376;2023-04-25T11:13:52;93997.59;;;18.07;100.00
6030;BME280;3043;42.682;23.376;2023-04-25T11:16:18;93992.97;;;18.48;100.00
6030;BME280;3043;42.682;23.376;2023-04-25T11:18:44;93987.72;;;19.08;100.00
6030;BME280;3043;42.682;23.376;2023-04-25T11:21:10;93990.34;;;19.31;100.00
6030;BME280;3043;42.682;23.376;2023-04-25T11:23:36;93978.78;;;19.69;100.00
6030;BME280;3043;42.682;23.376;2023-04-25T11:26:03;93977.38;;;19.17;100.00
6030;BME280;3043;42.682;23.376;2023-04-25T11:28:28;93980.06;;;18.45;100.00
6030;BME280;3043;42.682;23.376;2023-04-25T11:30:54;93983.31;;;18.49;100.00
6030;BME280;3043;42.682;23.376;2023-04-25T11:33:25;93977.44;;;18.45;100.00
6030;BME280;3043;42.682;23.376;2023-04-25T11:35:53;93978.50;;;18.30;100.00
6030;BME280;3043;42.682;23.376;2023-04-25T11:38:20;93980.59;;;18.25;100.00
6030;BME280;3043;42.682;23.376;2023-04-25T11:40:50;93984.13;;;18.49;100.00
6030;BME280;3043;42.682;23.376;2023-04-25T11:43:17;93989.19;;;18.40;100.00
6030;BME280;3043;42.682;23.376;2023-04-25T11:45:46;93999.03;;;18.11;100.00
6030;BME280;3043;42.682;23.376;2023-04-25T11:48:12;94004.31;;;17.86;100.00
6030;BME280;3043;42.682;23.376;2023-04-25T11:50:39;93999.91;;;17.74;100.00
6030;BME280;3043;42.682;23.376;2023-04-25T11:53:04;94010.13;;;17.52;100.00
6030;BME280;3043;42.682;23.376;2023-04-25T11:55:31;94010.16;;;16.99;100.00
6030;BME280;3043;42.682;23.376;2023-04-25T11:57:59;93994.25;;;16.49;100.00
6030;BME280;3043;42.682;23.376;2023-04-25T12:00:26;93988.72;;;16.39;100.00
6030;BME280;3043;42.682;23.376;2023-04-25T12:02:53;93988.28;;;16.33;100.00
6030;BME280;3043;42.682;23.376;2023-04-25T12:05:20;93991.28;;;16.27;100.00
6030;BME280;3043;42.682;23.376;2023-04-25T12:07:48;93986.19;;;16.38;100.00
6030;BME280;3043;42.682;23.376;2023-04-25T12:10:16;93977.16;;;16.57;100.00
6030;BME280;3043;42.682;23.376;2023-04-25T12:12:42;93969.25;;;16.71;100.00
6030;BME280;3043;42.682;23.376;2023-04-25T12:15:16;93979.78;;;16.84;100.00
6030;BME280;3043;42.682;23.376;2023-04-25T12:17:49;93986.28;;;16.91;100.00
6030;BME280;3043;42.682;23.376;2023-04-25T12:20:18;93989.09;;;16.88;100.00
6030;BME280;3043;42.682;23.376;2023-04-25T12:22:47;93980.78;;;16.95;100.00
6030;BME280;3043;42.682;23.376;2023-04-25T12:25:34;93987.72;;;17.09;100.00
6030;BME280;3043;42.682;23.376;2023-04-25T12:28:28;93982.44;;;17.35;100.00
6030;BME280;3043;42.682;23.376;2023-04-25T12:31:05;93979.50;;;17.40;100.00
6030;BME280;3043;42.682;23.376;2023-04-25T12:33:35;93972.56;;;17.65;100.00
6030;BME280;3043;42.682;23.376;2023-04-25T12:36:02;93985.97;;;17.99;100.00
6030;BME280;3043;42.682;23.376;2023-04-25T12:38:40;93997.81;;;18.17;100.00
6030;BME280;3043;42.682;23.376;2023-04-25T12:41:06;94024.81;;;17.92;100.00
6030;BME280;3043;42.682;23.376;2023-04-25T12:43:31;94038.88;;;17.13;100.00
6030;BME280;3043;42.682;23.376;2023-04-25T12:45:57;94031.34;;;16.40;100.00
6030;BME280;3043;42.682;23.376;2023-04-25T12:48:23;94034.03;;;15.68;100.00
6030;BME280;3043;42.682;23.376;2023-04-25T12:50:49;94036.91;;;15.49;100.00
6030;BME280;3043;42.682;23.376;2023-04-25T12:53:19;94041.41;;;15.16;100.00
6030;BME280;3043;42.682;23.376;2023-04-25T12:55:46;94034.09;;;14.78;100.00
6030;BME280;3043;42.682;23.376;2023-04-25T12:58:13;94038.53;;;14.60;100.00
6030;BME280;3043;42.682;23.376;2023-04-25T13:00:38;94034.50;;;14.39;100.00
6030;BME280;3043;42.682;23.376;2023-04-25T13:03:04;94036.66;;;14.31;100.00
6030;BME280;3043;42.682;23.376;2023-04-25T13:05:30;94021.84;;;14.16;100.00